Nearby METAR Reports

 

KHCR - Heber/Russ Mcdon, Utah, USA
Distance from station: SSW 18mi, 29km
Updated: Sun, 12-Jul-2020 1:15am MDT
Clear
Clear
 Wind from calm
Wind: Calm
Temperature: 61°F , 16°C
Dew Point: 41°F , 5°C
Humidity: 48%
Barometer: 30.20 inHg , 1022.7 hPa
Clouds: Clear
Visibility: 10 miles , 16 km
2020/07/12 07:15 KHCR 120715Z AUTO 00000KT 10SM CLR 16/05 A3020 RMK AO2
KSLC - Salt Lake City, Utah, USA
Distance from station: W 35mi, 57km
Updated: Sun, 12-Jul-2020 12:54am MDT
Partly cloudy
Partly cloudy
 Wind from ESE
Wind: ESE 8 mph , 13 km/h
Temperature: 79°F , 26°C
Dew Point: 37°F , 3°C
Humidity: 23%
Barometer: 30.03 inHg , 1016.9 hPa
Clouds: Partly cloudy
Visibility: 10 miles , 16 km
Cloud details: Partly cloudy 15000 ft
2020/07/12 06:54 KSLC 120654Z 12007KT 10SM SCT150 26/03 A3003 RMK AO2 SLP103 T02610033 403670178 $
 
KU42 - Salt Lake Muni, Utah, USA
Distance from station: WSW 37mi, 59km
Updated: Sun, 12-Jul-2020 1:35am MDT
Clear
Clear
 Wind from SSW
Wind: SSW 3 mph , 6 km/h
Temperature: 79°F , 26°C
Dew Point: 45°F , 7°C
Humidity: 30%
Barometer: 30.08 inHg , 1018.6 hPa
Clouds: Clear
Visibility: 10 miles , 16 km
2020/07/12 07:35 KU42 120735Z AUTO 21003KT 10SM CLR 26/07 A3008 RMK AO1 T02560065
KEVW - Evanston, Wyoming, USA
Distance from station: NNE 40mi, 64km
Updated: Sun, 12-Jul-2020 12:53am MDT
Clear
Clear
 Wind from SE
Wind: SE 8 mph , 13 km/h
Temperature: 63°F , 17°C
Dew Point: 34°F , 1°C
Humidity: 34%
Barometer: 30.31 inHg , 1026.4 hPa
Clouds: Clear
Visibility: 10 miles , 16 km
2020/07/12 06:53 KEVW 120653Z AUTO 14007KT 10SM CLR 17/01 A3031 RMK AO2 SLP156 T01720006 403110111 $
 
KPVU - Provo Muni, Utah, USA
Distance from station: SSW 41mi, 67km
Updated: Sun, 12-Jul-2020 12:56am MDT
Clear
Clear
 Wind from E
Wind: E 5 mph , 7 km/h
Temperature: 72°F , 22°C
Dew Point: 46°F , 8°C
Humidity: 41%
Barometer: 30.09 inHg , 1019 hPa
Clouds: Clear
Visibility: 10 miles , 16 km
2020/07/12 06:56 KPVU 120656Z AUTO 09004KT 10SM CLR 22/08 A3009 RMK AO2 SLP121 T02220083 403830144
KHIF - Hill Afb/Ogden, Utah, USA
Distance from station: NW 45mi, 72km
Updated: Sun, 12-Jul-2020 12:58am MDT
Clear
Clear
 Wind from ESE
Wind: ESE 17 mph , 28 km/h
Temperature: 75°F , 24°C
Dew Point: 36°F , 2°C
Humidity: 24%
Barometer: 30.08 inHg , 1018.6 hPa
Clouds: Clear
Visibility: 10 miles , 16 km
2020/07/12 06:58 KHIF 120658Z AUTO 11015KT 10SM CLR 24/02 A3008 RMK AO2 SLP115 T02410023 403420175
 
KOGD - Ogden, Utah, USA
Distance from station: NW 50mi, 81km
Updated: Sun, 12-Jul-2020 12:53am MDT
Clear
Clear
 Wind from S
Wind: S 10 mph , 17 km/h
Temperature: 79°F , 26°C
Dew Point: 34°F , 1°C
Humidity: 20%
Barometer: 30.05 inHg , 1017.6 hPa
Clouds: Clear
Visibility: 10 miles , 16 km
2020/07/12 06:53 KOGD 120653Z AUTO 17009KT 10SM CLR 26/01 A3005 RMK AO2 SLP105 T02560011 403670172